createdAt,value
2022-11-20T00:02:12.515Z,77.00
2022-11-20T00:04:40.803Z,77.30
2022-11-20T00:07:09.166Z,76.30
2022-11-20T00:09:37.581Z,76.00
2022-11-20T00:12:07.815Z,76.10
2022-11-20T00:14:36.664Z,76.60
2022-11-20T00:17:05.556Z,77.70
2022-11-20T00:19:34.018Z,77.50
2022-11-20T00:22:02.394Z,77.30
2022-11-20T00:24:30.840Z,76.70
2022-11-20T00:27:02.023Z,76.70
2022-11-20T00:29:32.323Z,76.10
2022-11-20T00:32:01.049Z,76.30
2022-11-20T00:34:29.926Z,76.10
2022-11-20T00:36:58.672Z,76.10
2022-11-20T00:39:27.339Z,76.60
2022-11-20T00:41:55.895Z,76.00
2022-11-20T00:44:24.650Z,75.90
2022-11-20T00:46:54.860Z,76.80
2022-11-20T00:49:23.795Z,77.20
2022-11-20T00:51:52.610Z,77.90
2022-11-20T00:54:21.032Z,78.40
2022-11-20T00:56:49.465Z,79.50
2022-11-20T00:59:17.976Z,81.20
2022-11-20T01:01:46.429Z,81.60
2022-11-20T01:04:16.515Z,83.00
2022-11-20T01:06:45.044Z,82.80
2022-11-20T01:09:14.879Z,83.00
2022-11-20T01:11:44.108Z,82.90
2022-11-20T01:14:13.629Z,83.10
2022-11-20T01:16:43.130Z,83.30
2022-11-20T01:19:17.348Z,84.30
2022-11-20T01:21:48.594Z,84.60
2022-11-20T01:24:17.895Z,85.70
2022-11-20T01:26:47.488Z,87.10
2022-11-20T01:29:19.801Z,87.20
2022-11-20T01:31:48.804Z,87.00
2022-11-20T01:34:19.364Z,86.90
2022-11-20T01:36:49.707Z,87.10
2022-11-20T01:39:24.013Z,87.30
2022-11-20T01:42:11.166Z,87.40
2022-11-20T01:44:56.957Z,87.80
2022-11-20T01:47:34.250Z,87.80
2022-11-20T01:50:08.698Z,88.70
2022-11-20T01:52:40.324Z,88.70
2022-11-20T01:55:10.433Z,88.70
2022-11-20T01:57:40.209Z,88.60
2022-11-20T02:00:10.573Z,88.90
2022-11-20T02:02:43.177Z,89.40
2022-11-20T02:05:16.154Z,89.60
2022-11-20T02:07:46.266Z,90.00
2022-11-20T02:10:15.074Z,89.90
2022-11-20T02:13:00.835Z,90.30
2022-11-20T02:15:30.556Z,89.20
2022-11-20T02:17:59.250Z,89.00
2022-11-20T02:20:27.926Z,87.60
2022-11-20T02:23:00.098Z,87.10
2022-11-20T02:25:30.684Z,87.00
2022-11-20T02:27:59.109Z,87.20
2022-11-20T02:30:27.719Z,87.90
2022-11-20T02:32:56.005Z,88.60
2022-11-20T02:35:45.560Z,89.30
2022-11-20T02:38:14.074Z,90.10
2022-11-20T02:40:43.880Z,90.60
2022-11-20T02:43:13.438Z,90.90
2022-11-20T02:45:41.819Z,91.30
2022-11-20T02:48:10.260Z,91.10
2022-11-20T03:04:02.469Z,90.30
2022-11-20T03:06:31.184Z,90.80
2022-11-20T03:08:59.718Z,91.40
2022-11-20T03:11:28.682Z,91.30
2022-11-20T03:13:57.638Z,91.30
2022-11-20T03:16:26.120Z,91.30
2022-11-20T03:18:54.708Z,91.00
2022-11-20T03:21:24.573Z,90.90
2022-11-20T03:23:53.053Z,90.60
2022-11-20T03:26:22.692Z,90.70
2022-11-20T03:28:51.860Z,90.70
2022-11-20T03:31:21.609Z,91.00
2022-11-20T03:33:50.054Z,91.10
2022-11-20T03:36:19.094Z,90.60
2022-11-20T03:38:48.998Z,90.40
2022-11-20T03:41:20.481Z,90.60
2022-11-20T03:43:52.789Z,90.30
2022-11-20T03:46:21.143Z,90.70
2022-11-20T03:48:51.954Z,90.70
2022-11-20T03:51:21.840Z,90.70
2022-11-20T03:53:52.786Z,90.60
2022-11-20T03:56:22.282Z,90.20
2022-11-20T03:58:50.719Z,90.10
2022-11-20T04:01:20.353Z,90.20
2022-11-20T04:03:48.773Z,90.20
2022-11-20T04:06:17.799Z,90.30
2022-11-20T04:08:51.016Z,90.60
2022-11-20T04:11:24.264Z,90.80
2022-11-20T04:13:53.266Z,90.70
2022-11-20T04:16:21.722Z,90.50
2022-11-20T04:18:53.535Z,90.20
2022-11-20T04:21:21.931Z,90.20
2022-11-20T04:23:50.520Z,90.30
2022-11-20T04:26:18.840Z,90.40
2022-11-20T04:28:48.771Z,90.50
2022-11-20T04:31:18.042Z,90.30
2022-11-20T04:33:46.558Z,90.40
2022-11-20T04:36:16.358Z,90.20
2022-11-20T04:38:45.283Z,90.20
2022-11-20T04:41:16.814Z,89.80
2022-11-20T04:43:50.304Z,89.70
2022-11-20T04:46:19.343Z,89.40
2022-11-20T04:48:48.695Z,89.70
2022-11-20T04:51:18.090Z,89.30
2022-11-20T04:53:47.051Z,89.20
2022-11-20T04:56:16.109Z,89.30
2022-11-20T04:58:44.780Z,88.40
2022-11-20T05:01:15.364Z,87.50
2022-11-20T05:03:44.613Z,87.20
2022-11-20T05:06:14.426Z,87.00
2022-11-20T05:08:42.973Z,87.70
2022-11-20T05:11:11.953Z,87.60
2022-11-20T05:13:40.516Z,87.30
2022-11-20T05:16:09.902Z,86.10
2022-11-20T05:18:40.414Z,85.70
2022-11-20T05:21:10.274Z,85.50
2022-11-20T05:23:39.314Z,86.50
2022-11-20T05:26:10.490Z,86.80
2022-11-20T05:28:39.286Z,87.00
2022-11-20T05:31:09.854Z,87.30
2022-11-20T05:33:42.505Z,87.70
2022-11-20T05:36:11.590Z,87.50
2022-11-20T05:38:40.279Z,87.20
2022-11-20T05:41:09.158Z,86.80
2022-11-20T05:43:38.119Z,87.10
2022-11-20T05:46:07.824Z,87.80
2022-11-20T05:48:36.453Z,88.00
2022-11-20T05:51:07.386Z,87.50
2022-11-20T05:53:36.626Z,87.60
2022-11-20T05:56:06.977Z,86.80
2022-11-20T05:58:35.701Z,86.60
2022-11-20T06:01:08.110Z,86.30
2022-11-20T06:03:36.622Z,87.50
2022-11-20T06:06:07.830Z,87.20
2022-11-20T06:08:36.741Z,87.50
2022-11-20T06:11:07.465Z,86.80
2022-11-20T06:13:41.799Z,86.80
2022-11-20T06:16:12.138Z,86.50
2022-11-20T06:18:41.675Z,86.20
2022-11-20T06:21:13.427Z,85.70
2022-11-20T06:23:42.858Z,86.20
2022-11-20T06:26:13.461Z,86.00
2022-11-20T06:28:42.659Z,86.10
2022-11-20T06:31:14.504Z,86.40
2022-11-20T06:33:43.965Z,87.40
2022-11-20T06:36:16.237Z,88.30
2022-11-20T06:38:45.384Z,89.10
2022-11-20T06:41:16.135Z,88.70
2022-11-20T06:43:45.061Z,88.40
2022-11-20T06:46:15.034Z,88.60
2022-11-20T06:48:43.582Z,88.30
2022-11-20T06:51:14.056Z,88.60
2022-11-20T06:53:42.835Z,88.30
2022-11-20T06:56:11.659Z,87.80
2022-11-20T06:58:40.463Z,87.70
2022-11-20T07:01:12.029Z,88.00
2022-11-20T07:03:41.483Z,86.90
2022-11-20T07:06:11.022Z,86.50
2022-11-20T07:08:41.248Z,87.30
2022-11-20T07:11:10.370Z,86.90
2022-11-20T07:13:39.072Z,86.30
2022-11-20T07:16:10.596Z,85.60
2022-11-20T07:18:39.586Z,86.60
2022-11-20T07:21:11.654Z,85.90
2022-11-20T07:23:42.019Z,87.00
2022-11-20T07:26:12.825Z,87.40
2022-11-20T07:28:42.488Z,87.90
2022-11-20T07:31:14.666Z,86.80
2022-11-20T07:33:47.384Z,87.10
2022-11-20T07:36:16.034Z,88.30
2022-11-20T07:38:46.041Z,88.90
2022-11-20T07:41:15.033Z,89.50
2022-11-20T07:43:43.812Z,90.00
2022-11-20T07:46:12.608Z,90.20
2022-11-20T07:48:41.983Z,90.10
2022-11-20T07:51:10.876Z,90.00
2022-11-20T07:53:39.550Z,90.40
2022-11-20T07:56:10.637Z,90.40
2022-11-20T07:58:39.416Z,90.10
2022-11-20T08:01:09.528Z,90.40
2022-11-20T08:03:39.502Z,90.80
2022-11-20T08:06:09.810Z,91.00
2022-11-20T08:08:43.106Z,91.10
2022-11-20T08:11:34.047Z,91.10
2022-11-20T08:14:15.146Z,91.20
2022-11-20T08:16:46.167Z,91.20
2022-11-20T08:19:15.601Z,91.50
2022-11-20T08:21:44.755Z,91.70
2022-11-20T08:24:14.088Z,91.70
2022-11-20T08:26:44.481Z,91.70
2022-11-20T08:29:13.492Z,91.80
2022-11-20T08:31:42.201Z,91.80
2022-11-20T08:34:14.959Z,91.80
2022-11-20T08:36:46.449Z,91.70
2022-11-20T08:39:18.480Z,91.40
2022-11-20T08:41:48.567Z,91.60
2022-11-20T08:44:17.166Z,91.80
2022-11-20T08:46:46.933Z,91.90
2022-11-20T08:49:16.939Z,91.30
2022-11-20T08:51:46.098Z,91.50
2022-11-20T08:54:15.043Z,91.40
2022-11-20T08:56:43.850Z,91.80
2022-11-20T08:59:31.295Z,92.00
2022-11-20T09:02:02.648Z,92.40
2022-11-20T09:04:31.501Z,92.50
2022-11-20T09:07:02.585Z,92.40
2022-11-20T09:09:31.355Z,92.30
2022-11-20T09:12:00.027Z,92.50
2022-11-20T09:14:31.128Z,92.50
2022-11-20T09:17:00.067Z,92.50
2022-11-20T09:19:40.647Z,92.50
2022-11-20T09:22:09.988Z,92.40
2022-11-20T09:24:38.528Z,92.70
2022-11-20T09:27:07.585Z,92.80
2022-11-20T09:29:41.099Z,92.70
2022-11-20T09:32:10.357Z,92.90
2022-11-20T09:34:39.553Z,93.00
2022-11-20T09:37:08.382Z,93.00
2022-11-20T09:39:40.194Z,93.30
2022-11-20T09:42:31.530Z,93.20
2022-11-20T09:45:18.825Z,93.20
2022-11-20T09:48:13.315Z,92.80
2022-11-20T09:50:50.028Z,92.80
2022-11-20T09:53:32.927Z,92.50
2022-11-20T09:56:04.617Z,92.70
2022-11-20T09:58:37.660Z,92.70
2022-11-20T10:01:15.391Z,92.50
2022-11-20T10:03:54.268Z,92.00
2022-11-20T10:06:30.837Z,92.20
2022-11-20T10:09:16.318Z,92.30
2022-11-20T10:11:54.043Z,92.30
2022-11-20T10:14:32.728Z,92.20
2022-11-20T10:17:08.747Z,92.10
2022-11-20T10:19:49.990Z,92.20
2022-11-20T10:22:33.075Z,92.00
2022-11-20T10:25:08.473Z,91.70
2022-11-20T10:27:49.989Z,91.80
2022-11-20T10:30:23.076Z,92.00
2022-11-20T10:32:56.941Z,92.10
2022-11-20T10:35:35.516Z,92.20
2022-11-20T10:38:10.127Z,92.30
2022-11-20T10:40:45.125Z,92.10
2022-11-20T10:43:18.687Z,92.10
2022-11-20T10:45:55.473Z,92.20
2022-11-20T10:48:27.849Z,92.20
2022-11-20T10:51:17.970Z,92.60
2022-11-20T10:54:01.393Z,92.40
2022-11-20T10:56:37.798Z,92.40
2022-11-20T10:59:27.881Z,92.40
2022-11-20T11:01:56.896Z,90.60
2022-11-20T11:04:42.837Z,87.40
2022-11-20T11:07:15.532Z,89.70
2022-11-20T11:09:48.805Z,88.20
2022-11-20T11:12:17.579Z,88.50
2022-11-20T11:14:50.047Z,88.20
2022-11-20T11:17:28.964Z,87.90
2022-11-20T11:20:08.967Z,86.80
2022-11-20T11:22:49.117Z,86.30
2022-11-20T11:25:39.300Z,85.80
2022-11-20T11:28:22.672Z,85.90
2022-11-20T11:30:51.385Z,85.30
2022-11-20T11:33:23.175Z,85.30
2022-11-20T11:35:58.051Z,84.50
2022-11-20T11:38:33.069Z,84.20
2022-11-20T11:41:03.052Z,84.30
2022-11-20T11:43:53.077Z,84.90
2022-11-20T11:46:32.980Z,84.10
2022-11-20T11:49:03.421Z,80.30
2022-11-20T11:51:40.424Z,81.20
2022-11-20T11:54:18.731Z,82.10
2022-11-20T11:56:48.258Z,81.80
2022-11-20T11:59:27.670Z,80.40
2022-11-20T12:01:59.765Z,76.90
2022-11-20T12:04:42.758Z,77.10
2022-11-20T12:07:44.874Z,78.40
2022-11-20T12:10:15.138Z,76.90
2022-11-20T12:12:47.716Z,76.80
2022-11-20T12:15:30.961Z,75.70
2022-11-20T12:18:00.632Z,75.70
2022-11-20T12:20:33.988Z,73.90
2022-11-20T12:23:13.553Z,73.80
2022-11-20T12:25:46.388Z,73.70
2022-11-20T12:28:32.590Z,73.20
2022-11-20T12:31:19.822Z,71.40
2022-11-20T12:34:02.230Z,72.30
2022-11-20T12:36:39.757Z,70.40
2022-11-20T12:39:32.874Z,66.00
2022-11-20T12:42:59.825Z,63.80
2022-11-20T12:45:33.749Z,63.60
2022-11-20T12:48:13.289Z,64.30
2022-11-20T12:51:08.121Z,63.60
2022-11-20T12:53:38.956Z,62.60
2022-11-20T12:56:14.816Z,62.90
2022-11-20T12:58:46.730Z,65.40
2022-11-20T13:01:37.869Z,65.00
2022-11-20T13:04:10.736Z,62.70
2022-11-20T13:25:16.306Z,49.30
2022-11-20T13:28:06.951Z,49.40
2022-11-20T13:31:11.005Z,52.00
2022-11-20T13:34:06.300Z,47.10
2022-11-20T13:37:01.338Z,47.10
2022-11-20T13:39:41.293Z,48.10
2022-11-20T13:42:45.954Z,49.70
2022-11-20T13:46:33.817Z,50.60
2022-11-20T13:50:03.037Z,51.50
2022-11-20T14:01:40.383Z,51.10
2022-11-20T14:04:10.334Z,51.20
2022-11-20T14:06:43.776Z,48.80
2022-11-20T14:09:13.420Z,47.60
2022-11-20T14:11:48.739Z,46.10
2022-11-20T14:14:19.041Z,48.00
2022-11-20T14:16:49.328Z,48.00
2022-11-20T14:19:31.478Z,48.40
2022-11-20T14:22:11.485Z,47.50
2022-11-20T14:24:39.920Z,48.20
2022-11-20T14:27:12.914Z,48.30
2022-11-20T14:29:41.811Z,49.10
2022-11-20T14:32:12.920Z,47.90
2022-11-20T14:34:42.638Z,48.10
2022-11-20T14:37:16.733Z,48.70
2022-11-20T14:39:50.033Z,47.60
2022-11-20T14:42:19.024Z,48.10
2022-11-20T14:44:47.648Z,48.20
2022-11-20T14:47:19.770Z,48.80
2022-11-20T14:49:48.514Z,49.70
2022-11-20T14:52:18.246Z,50.20
2022-11-20T14:54:47.415Z,49.70
2022-11-20T14:57:24.085Z,49.30
2022-11-20T14:59:53.381Z,48.10
2022-11-20T15:02:24.852Z,49.70
2022-11-20T15:04:58.812Z,48.90
2022-11-20T15:07:27.984Z,49.50
2022-11-20T15:10:03.312Z,49.30
2022-11-20T15:12:32.382Z,49.20
2022-11-20T15:15:01.126Z,49.20
2022-11-20T15:17:31.883Z,48.80
2022-11-20T15:20:01.164Z,49.10
2022-11-20T15:22:29.841Z,49.60
2022-11-20T15:24:58.403Z,49.10
2022-11-20T15:27:28.218Z,49.30
2022-11-20T15:29:57.185Z,50.10
2022-11-20T15:32:25.724Z,50.80
2022-11-20T15:34:56.173Z,49.00
2022-11-20T15:37:29.759Z,49.10
2022-11-20T15:39:58.886Z,49.00
2022-11-20T15:42:27.306Z,48.60
2022-11-20T15:44:56.367Z,48.60
2022-11-20T15:47:26.698Z,48.40
2022-11-20T15:49:56.494Z,48.30
2022-11-20T15:52:24.807Z,48.80
2022-11-20T15:54:53.443Z,48.90
2022-11-20T15:57:21.724Z,49.00
2022-11-20T15:59:50.116Z,48.90
2022-11-20T16:02:19.557Z,48.60
2022-11-20T16:04:48.124Z,48.80
2022-11-20T16:07:17.919Z,48.70
2022-11-20T16:09:46.625Z,48.90
2022-11-20T16:12:35.334Z,48.20
2022-11-20T16:15:21.464Z,49.30
2022-11-20T16:17:49.914Z,49.20
2022-11-20T16:20:18.342Z,48.80
2022-11-20T16:22:48.080Z,49.10
2022-11-20T16:25:16.488Z,50.10
2022-11-20T16:27:44.977Z,48.40
2022-11-20T16:30:14.135Z,49.80
2022-11-20T16:32:42.545Z,48.80
2022-11-20T16:35:11.735Z,49.10
2022-11-20T16:37:40.562Z,49.30
2022-11-20T16:40:12.112Z,49.20
2022-11-20T16:42:41.029Z,49.70
2022-11-20T16:45:10.081Z,49.00
2022-11-20T16:47:38.664Z,49.60
2022-11-20T16:50:07.591Z,48.70
2022-11-20T16:52:36.103Z,49.50
2022-11-20T16:55:04.918Z,49.30
2022-11-20T16:57:35.169Z,50.10
2022-11-20T17:00:03.675Z,49.70
2022-11-20T17:02:32.173Z,49.40
2022-11-20T17:05:00.487Z,49.00
2022-11-20T17:07:28.902Z,49.20
2022-11-20T17:09:58.201Z,50.50
2022-11-20T17:12:26.911Z,50.20
2022-11-20T17:14:56.903Z,49.80
2022-11-20T17:17:25.586Z,49.70
2022-11-20T17:19:54.260Z,50.40
2022-11-20T17:22:22.791Z,51.00
2022-11-20T17:24:51.297Z,51.90
2022-11-20T17:27:19.735Z,53.10
2022-11-20T17:29:48.184Z,54.70
2022-11-20T17:32:18.045Z,56.20
2022-11-20T17:34:46.608Z,56.80
2022-11-20T17:37:15.037Z,56.70
2022-11-20T17:39:44.843Z,59.50
2022-11-20T17:42:29.881Z,60.50
2022-11-20T17:44:59.757Z,60.20
2022-11-20T17:47:29.717Z,60.80
2022-11-20T17:49:58.152Z,61.10
2022-11-20T17:52:26.741Z,62.40
2022-11-20T17:54:56.227Z,62.50
2022-11-20T17:57:42.314Z,61.40
2022-11-20T18:00:13.264Z,62.30
2022-11-20T18:02:43.109Z,62.60
2022-11-20T18:05:11.723Z,61.70
2022-11-20T18:07:41.948Z,61.50
2022-11-20T18:10:12.152Z,61.80
2022-11-20T18:12:40.530Z,63.40
2022-11-20T18:15:09.468Z,64.20
2022-11-20T18:17:37.972Z,65.90
2022-11-20T18:22:57.983Z,65.50
2022-11-20T18:25:26.709Z,65.80
2022-11-20T18:27:55.132Z,67.20
2022-11-20T18:30:24.130Z,67.50
2022-11-20T18:32:52.602Z,68.30
2022-11-20T18:35:22.507Z,71.60
2022-11-20T18:37:50.917Z,72.40
2022-11-20T18:40:19.539Z,73.30
2022-11-20T18:43:05.470Z,74.80
2022-11-20T18:45:34.085Z,74.70
2022-11-20T18:48:02.939Z,75.50
2022-11-20T18:50:32.872Z,76.90
2022-11-20T18:53:01.917Z,77.50
2022-11-20T18:55:30.485Z,77.50
2022-11-20T18:57:58.859Z,77.20
2022-11-20T19:00:27.335Z,76.50
2022-11-20T19:02:56.087Z,77.10
2022-11-20T19:05:28.314Z,77.80
2022-11-20T19:07:59.877Z,78.20
2022-11-20T19:10:28.580Z,77.90
2022-11-20T19:12:58.665Z,78.00
2022-11-20T19:15:27.076Z,78.00
2022-11-20T19:17:56.974Z,77.60
2022-11-20T19:20:27.852Z,76.60
2022-11-20T19:22:56.555Z,77.00
2022-11-20T19:25:26.906Z,77.40
2022-11-20T19:27:55.493Z,77.60
2022-11-20T19:30:24.635Z,77.50
2022-11-20T19:32:53.061Z,77.60
2022-11-20T19:35:21.748Z,78.10
2022-11-20T19:37:50.252Z,78.50
2022-11-20T19:40:18.978Z,78.50
2022-11-20T19:42:49.163Z,78.40
2022-11-20T19:45:17.887Z,79.30
2022-11-20T19:48:15.247Z,79.90
2022-11-20T19:50:35.535Z,80.90
2022-11-20T19:53:04.465Z,81.20
2022-11-20T19:55:33.054Z,81.60
2022-11-20T19:58:03.746Z,81.70
2022-11-20T20:00:33.134Z,82.90
2022-11-20T20:03:01.897Z,83.90
2022-11-20T20:05:30.797Z,85.00
2022-11-20T20:07:59.663Z,85.90
2022-11-20T20:10:28.776Z,86.70
2022-11-20T20:12:57.302Z,86.70
2022-11-20T20:15:27.871Z,87.70
2022-11-20T20:17:56.719Z,88.80
2022-11-20T20:20:26.191Z,88.60
2022-11-20T20:22:55.674Z,89.70
2022-11-20T20:25:25.444Z,90.10
2022-11-20T20:27:54.610Z,89.80
2022-11-20T20:30:23.488Z,90.00
2022-11-20T20:32:56.419Z,90.20
2022-11-20T20:35:25.867Z,90.30
2022-11-20T20:37:54.735Z,90.00
2022-11-20T20:40:23.074Z,90.30
2022-11-20T20:42:52.952Z,90.30
2022-11-20T20:45:22.023Z,90.00
2022-11-20T20:47:50.654Z,89.70
2022-11-20T20:50:20.892Z,90.10
2022-11-20T20:52:49.724Z,90.00
2022-11-20T20:55:18.328Z,90.20
2022-11-20T20:57:46.822Z,90.00
2022-11-20T21:00:15.797Z,89.80
2022-11-20T21:02:44.224Z,90.00
2022-11-20T21:05:12.769Z,90.00
2022-11-20T21:07:56.502Z,90.10
2022-11-20T21:10:25.095Z,90.00
2022-11-20T21:12:53.526Z,89.20
2022-11-20T21:15:21.916Z,89.30
2022-11-20T21:17:50.350Z,88.80
2022-11-20T21:20:32.722Z,88.90
2022-11-20T21:23:02.606Z,88.00
2022-11-20T21:25:31.300Z,88.20
2022-11-20T21:27:59.723Z,88.70
2022-11-20T21:30:28.147Z,88.20
2022-11-20T21:32:59.791Z,88.30
2022-11-20T21:35:28.287Z,88.40
2022-11-20T21:37:56.881Z,88.40
2022-11-20T21:40:27.070Z,87.90
2022-11-20T21:42:55.597Z,88.10
2022-11-20T21:45:24.049Z,87.90
2022-11-20T21:47:53.347Z,89.20
2022-11-20T21:50:22.310Z,88.40
2022-11-20T21:52:50.883Z,88.50
2022-11-20T21:55:19.370Z,88.70
2022-11-20T21:57:49.330Z,88.90
2022-11-20T22:00:18.186Z,88.80
2022-11-20T22:02:46.610Z,88.90
2022-11-20T22:05:15.097Z,88.80
2022-11-20T22:07:44.410Z,88.80
2022-11-20T22:10:18.159Z,88.50
2022-11-20T22:12:46.938Z,89.30
2022-11-20T22:15:23.858Z,89.10
2022-11-20T22:18:13.980Z,89.10
2022-11-20T22:20:42.844Z,89.30
2022-11-20T22:23:11.431Z,89.00
2022-11-20T22:25:39.860Z,89.30
2022-11-20T22:28:08.278Z,89.00
2022-11-20T22:30:38.350Z,88.90
2022-11-20T22:33:13.101Z,88.90
2022-11-20T22:35:42.145Z,88.20
2022-11-20T22:38:10.524Z,88.50
2022-11-20T22:40:39.259Z,87.70
2022-11-20T22:48:46.302Z,87.60
2022-11-20T22:51:20.129Z,87.30
2022-11-20T22:53:49.060Z,87.40
2022-11-20T22:56:18.312Z,87.60
2022-11-20T22:58:47.383Z,87.60
2022-11-20T23:01:16.600Z,87.90
2022-11-20T23:03:46.209Z,88.10
2022-11-20T23:06:15.243Z,88.60
2022-11-20T23:08:45.262Z,88.80
2022-11-20T23:11:14.263Z,88.60
2022-11-20T23:13:43.185Z,88.30
2022-11-20T23:16:12.649Z,88.00
2022-11-20T23:18:41.239Z,88.50
2022-11-20T23:21:10.786Z,89.00
2022-11-20T23:23:39.334Z,89.30
2022-11-20T23:26:09.659Z,89.40
2022-11-20T23:28:38.333Z,89.20
2022-11-20T23:31:07.095Z,89.30
2022-11-20T23:33:36.961Z,89.00
2022-11-20T23:36:05.545Z,89.10
2022-11-20T23:38:33.900Z,88.80
2022-11-20T23:41:02.496Z,88.80
2022-11-20T23:43:32.480Z,88.60
2022-11-20T23:46:01.655Z,88.20
2022-11-20T23:48:31.505Z,88.00
2022-11-20T23:51:00.065Z,87.40
2022-11-20T23:53:29.144Z,87.10
2022-11-20T23:55:58.208Z,87.00
2022-11-20T23:58:28.004Z,87.20
